Time;durP1;ratioP1;P1;durP2;ratioP2;P2;SDS_P1;SDS_P2;PMS_P1;PMS_P2;Temp;Humidity;BMP_temperature;BMP_pressure;BME280_temperature;BME280_humidity;BME280_pressure;Samples;Min_cycle;Max_cycle;Signal;HPM_P1;HPM_P2
2022/10/07 00:01:30;;;;;;;0.10;0.10;;;;;;;10.98;87.22;99759.59;5028695;28;20580;-71
2022/10/07 00:03:57;;;;;;;0.10;0.10;;;;;;;11.04;86.71;99768.59;5044048;28;20057;-71
2022/10/07 00:06:26;;;;;;;0.10;0.10;;;;;;;11.04;86.62;99752.19;5044948;28;20045;-70
2022/10/07 00:09:06;;;;;;;0.10;0.10;;;;;;;11.01;86.39;99758.22;5023098;28;20560;-69
2022/10/07 00:11:33;;;;;;;0.17;0.17;;;;;;;10.92;86.70;99764.25;5041355;28;20049;-71
2022/10/07 00:14:02;;;;;;;0.10;0.10;;;;;;;10.88;86.82;99776.84;5043493;28;20516;-71
2022/10/07 00:16:39;;;;;;;0.10;0.10;;;;;;;10.89;86.75;99764.81;5042497;28;20052;-71
2022/10/07 00:19:10;;;;;;;0.20;0.20;;;;;;;10.91;87.22;99780.97;5038048;28;20134;-70
2022/10/07 00:21:48;;;;;;;0.20;0.20;;;;;;;10.92;86.93;99755.25;5041747;28;20399;-71
2022/10/07 00:24:22;;;;;;;0.10;0.10;;;;;;;10.95;86.61;99759.34;5024982;28;20144;-71
2022/10/07 00:26:53;;;;;;;0.10;0.10;;;;;;;10.90;86.67;99760.19;5044267;28;20118;-70
2022/10/07 00:29:22;;;;;;;0.10;0.10;;;;;;;10.88;86.95;99773.31;5026120;28;20491;-71
2022/10/07 00:31:51;;;;;;;0.10;0.10;;;;;;;10.85;86.78;99773.84;5040909;28;20584;-71
2022/10/07 00:34:23;;;;;;;0.10;0.10;;;;;;;10.81;86.92;99773.59;5042103;28;20113;-71
2022/10/07 00:36:49;;;;;;;0.10;0.10;;;;;;;10.75;87.17;99770.06;5046712;28;20059;-71
2022/10/07 00:39:19;;;;;;;0.10;0.10;;;;;;;10.71;87.42;99781.81;5045874;28;20057;-70
2022/10/07 00:41:51;;;;;;;0.10;0.10;;;;;;;10.80;87.24;99782.91;5045743;28;20052;-69
2022/10/07 00:44:40;;;;;;;0.20;0.20;;;;;;;10.79;86.93;99786.75;5030467;28;20048;-69
2022/10/07 00:47:17;;;;;;;0.10;0.10;;;;;;;10.81;86.86;99779.06;5046009;28;20052;-71
2022/10/07 00:49:53;;;;;;;0.10;0.10;;;;;;;10.70;87.20;99794.69;5044297;28;20083;-70
2022/10/07 00:52:25;;;;;;;0.20;0.20;;;;;;;10.59;87.82;99793.84;5043845;28;20127;-70
2022/10/07 00:54:54;;;;;;;0.10;0.10;;;;;;;10.56;87.71;99788.94;5046491;28;20048;-70
2022/10/07 00:57:27;;;;;;;0.10;0.10;;;;;;;10.45;87.99;99792.78;5046737;28;20096;-74
2022/10/07 00:59:55;;;;;;;0.10;0.10;;;;;;;10.35;88.58;99793.56;5046185;28;20055;-71
2022/10/07 01:02:22;;;;;;;0.17;0.17;;;;;;;10.26;89.07;99787.84;5026317;28;20163;-71
2022/10/07 01:04:51;;;;;;;0.10;0.10;;;;;;;10.21;89.15;99798.78;5026800;28;20118;-72
2022/10/07 01:07:19;;;;;;;0.10;0.10;;;;;;;10.19;89.39;99807.22;5026501;28;20575;-73
2022/10/07 01:09:47;;;;;;;0.10;0.10;;;;;;;10.20;89.42;99799.84;5028575;28;20051;-71
2022/10/07 01:12:18;;;;;;;0.13;0.13;;;;;;;10.23;89.16;99807.50;5021411;28;20495;-73
2022/10/07 01:14:55;;;;;;;0.10;0.10;;;;;;;10.25;89.13;99818.19;5029407;28;20057;-71
2022/10/07 01:17:30;;;;;;;0.10;0.10;;;;;;;10.29;88.79;99825.53;5026780;28;20041;-70
2022/10/07 01:20:14;;;;;;;0.10;0.10;;;;;;;10.38;88.11;99823.09;5026087;28;20053;-72
2022/10/07 01:22:50;;;;;;;0.10;0.10;;;;;;;10.42;88.05;99820.66;5036896;28;20288;-71
2022/10/07 01:25:31;;;;;;;0.10;0.10;;;;;;;10.25;87.54;99788.91;5044694;28;20049;-72
2022/10/07 01:28:03;;;;;;;0.17;0.17;;;;;;;10.50;87.20;99834.59;5007334;28;20045;-70
2022/10/07 01:30:34;;;;;;;0.10;0.10;;;;;;;10.49;86.61;99838.44;5033139;28;20080;-71
2022/10/07 01:33:04;;;;;;;0.10;0.10;;;;;;;10.38;86.92;99833.22;5027659;28;20080;-72
2022/10/07 01:35:34;;;;;;;0.10;0.10;;;;;;;10.29;87.63;99841.94;5027119;28;20042;-72
2022/10/07 01:38:06;;;;;;;0.10;0.10;;;;;;;10.24;87.98;99841.13;5028877;28;20517;-71
2022/10/07 01:40:38;;;;;;;0.10;0.10;;;;;;;10.25;88.10;99848.25;5011211;28;20071;-72
2022/10/07 01:43:06;;;;;;;0.10;0.10;;;;;;;10.19;88.12;99839.22;5024442;28;20099;-71
2022/10/07 01:45:37;;;;;;;0.10;0.10;;;;;;;10.16;88.18;99842.50;5027046;28;20069;-71
2022/10/07 01:48:04;;;;;;;0.10;0.10;;;;;;;10.20;88.11;99858.03;5024676;28;20053;-72
2022/10/07 01:50:32;;;;;;;;;;;;;;;10.25;88.42;99853.69;5010658;28;20050;-71
2022/10/07 01:53:15;;;;;;;0.10;0.10;;;;;;;10.23;88.22;99853.97;5011770;28;19932;-71
2022/10/07 01:55:50;;;;;;;0.10;0.10;;;;;;;10.14;88.22;99844.66;5046837;28;20425;-70
2022/10/07 01:58:34;;;;;;;0.20;0.20;;;;;;;10.04;88.75;99875.50;5043500;28;20071;-71
2022/10/07 02:01:14;;;;;;;0.10;0.10;;;;;;;9.99;89.09;99853.66;5046163;28;20047;-71
2022/10/07 02:03:53;;;;;;;;;;;;;;;10.11;88.77;99873.34;5045831;28;20067;-72
2022/10/07 02:06:32;;;;;;;0.10;0.10;;;;;;;10.16;87.80;99869.81;5043578;28;19968;-72
2022/10/07 02:09:06;;;;;;;0.10;0.10;;;;;;;10.11;87.62;99873.34;5044358;28;20386;-73
2022/10/07 02:11:37;;;;;;;0.10;0.10;;;;;;;10.08;88.14;99874.69;5042498;28;20528;-72
2022/10/07 02:14:12;;;;;;;0.10;0.10;;;;;;;10.01;88.34;99876.88;5042893;28;20140;-72
2022/10/07 02:16:42;;;;;;;0.10;0.10;;;;;;;9.79;88.95;99858.78;5041992;28;20551;-72
2022/10/07 02:19:12;;;;;;;0.10;0.10;;;;;;;9.87;89.43;99875.75;5044922;28;20056;-72
2022/10/07 02:21:41;;;;;;;0.20;0.10;;;;;;;9.90;89.53;99875.19;5045111;28;20045;-72
2022/10/07 02:24:10;;;;;;;0.10;0.10;;;;;;;9.88;89.72;99874.66;5047694;28;20504;-70
2022/10/07 02:26:39;;;;;;;0.10;0.10;;;;;;;9.88;89.62;99871.91;5020561;28;20073;-71
2022/10/07 02:29:10;;;;;;;0.10;0.10;;;;;;;9.86;89.67;99885.03;4992912;28;20049;-70
2022/10/07 02:31:40;;;;;;;0.10;0.10;;;;;;;9.91;89.49;99883.13;5027032;28;20076;-71
2022/10/07 02:34:10;;;;;;;0.15;0.10;;;;;;;9.95;89.55;99893.53;5036681;28;20144;-69
2022/10/07 02:36:42;;;;;;;0.17;0.17;;;;;;;10.02;88.87;99885.88;5007068;28;20041;-71
2022/10/07 02:39:10;;;;;;;0.13;0.13;;;;;;;10.00;88.92;99888.06;5023606;28;20065;-70
2022/10/07 02:41:42;;;;;;;0.10;0.10;;;;;;;10.05;88.68;99891.63;5024087;28;20477;-71
2022/10/07 02:44:24;;;;;;;0.10;0.10;;;;;;;10.08;88.28;99896.56;5023426;28;20045;-72
2022/10/07 02:46:55;;;;;;;0.13;0.10;;;;;;;10.06;87.98;99892.44;5045359;28;20073;-72
2022/10/07 02:49:25;;;;;;;0.10;0.10;;;;;;;10.07;88.08;99894.91;5024942;28;20136;-72
2022/10/07 02:51:56;;;;;;;0.10;0.10;;;;;;;10.11;87.75;99900.66;5024043;28;20053;-71
2022/10/07 02:54:28;;;;;;;0.10;0.10;;;;;;;10.10;87.75;99890.00;5024824;28;20057;-71
2022/10/07 02:56:55;;;;;;;0.10;0.10;;;;;;;10.06;87.64;99893.28;5025285;28;20042;-72
2022/10/07 02:59:24;;;;;;;0.10;0.10;;;;;;;10.05;87.53;99893.53;5011015;28;20517;-71
2022/10/07 03:01:54;;;;;;;0.10;0.10;;;;;;;10.07;87.47;99897.66;5021997;28;20143;-71
2022/10/07 03:04:21;;;;;;;0.17;0.17;;;;;;;10.10;87.35;99900.94;5027128;28;20060;-72
2022/10/07 03:06:48;;;;;;;0.10;0.10;;;;;;;10.11;87.38;99911.59;5006130;28;20057;-71
2022/10/07 03:09:15;;;;;;;0.10;0.10;;;;;;;10.11;87.24;99916.22;5025418;28;20038;-71
2022/10/07 03:11:41;;;;;;;0.10;0.10;;;;;;;10.07;87.03;99907.78;5025931;28;20049;-69
2022/10/07 03:14:08;;;;;;;0.10;0.10;;;;;;;10.00;87.31;99908.03;4990463;28;20045;-72
2022/10/07 03:16:36;;;;;;;0.15;0.10;;;;;;;9.97;87.39;99914.00;5035996;28;20310;-69
2022/10/07 03:19:03;;;;;;;0.10;0.10;;;;;;;9.98;87.39;99909.38;5025323;28;20098;-71
2022/10/07 03:22:01;;;;;;;0.10;0.10;;;;;;;9.96;87.25;99908.81;5022872;28;20473;-70
2022/10/07 03:24:30;;;;;;;0.10;0.10;;;;;;;9.84;87.61;99915.31;5025002;28;20211;-71
2022/10/07 03:26:56;;;;;;;0.10;0.10;;;;;;;9.77;88.15;99912.84;5024547;28;20432;-70
2022/10/07 03:29:24;;;;;;;0.10;0.10;;;;;;;9.76;88.17;99913.13;5009853;28;20076;-72
2022/10/07 03:31:54;;;;;;;0.10;0.10;;;;;;;9.86;88.00;99928.72;5026507;28;20513;-70
2022/10/07 03:34:22;;;;;;;0.10;0.10;;;;;;;9.96;87.66;99927.94;5025213;28;20049;-70
2022/10/07 03:36:49;;;;;;;0.10;0.10;;;;;;;10.04;87.36;99932.88;4991000;28;20045;-71
2022/10/07 03:39:15;;;;;;;0.10;0.10;;;;;;;10.10;87.26;99923.63;5008415;28;20133;-70
2022/10/07 03:41:42;;;;;;;0.20;0.20;;;;;;;10.13;86.67;99931.28;5025138;28;20348;-71
2022/10/07 03:44:08;;;;;;;0.10;0.10;;;;;;;10.21;86.48;99946.31;5023543;28;20118;-71
2022/10/07 03:46:34;;;;;;;0.10;0.10;;;;;;;10.25;85.79;99939.22;5023831;28;20147;-71
2022/10/07 03:49:02;;;;;;;0.10;0.10;;;;;;;10.26;85.26;99929.94;5020877;28;20053;-72
2022/10/07 03:51:29;;;;;;;0.17;0.17;;;;;;;10.24;84.80;99936.78;5007294;28;20148;-71
2022/10/07 03:53:56;;;;;;;0.10;0.10;;;;;;;10.10;85.32;99940.00;5034608;28;20155;-71
2022/10/07 03:56:24;;;;;;;0.20;0.20;;;;;;;10.01;85.85;99947.06;5005804;28;20591;-72
2022/10/07 03:58:51;;;;;;;0.10;0.10;;;;;;;10.02;85.88;99935.06;5041001;28;20520;-72
2022/10/07 04:01:18;;;;;;;0.10;0.10;;;;;;;10.05;85.68;99940.81;5043910;28;20194;-73
2022/10/07 04:03:52;;;;;;;0.10;0.10;;;;;;;10.13;85.69;99939.47;5040906;28;20052;-71
2022/10/07 04:06:19;;;;;;;0.10;0.10;;;;;;;10.18;84.76;99935.94;5010088;28;20072;-71
2022/10/07 04:08:50;;;;;;;0.10;0.10;;;;;;;10.16;84.26;99943.59;5039073;28;20261;-71
2022/10/07 04:11:17;;;;;;;0.10;0.10;;;;;;;10.17;84.02;99943.28;5047583;28;20047;-71
2022/10/07 04:13:44;;;;;;;0.10;0.10;;;;;;;10.19;84.03;99943.03;5041821;28;20041;-70
2022/10/07 04:16:11;;;;;;;0.10;0.10;;;;;;;10.06;84.42;99947.06;5029419;28;20045;-71
2022/10/07 04:18:40;;;;;;;0.10;0.10;;;;;;;10.01;84.51;99956.09;5050336;28;20037;-71
2022/10/07 04:21:07;;;;;;;0.20;0.15;;;;;;;9.96;84.16;99952.53;5042078;28;20044;-71
2022/10/07 04:23:39;;;;;;;0.20;0.20;;;;;;;9.94;84.13;99966.44;5040774;28;20045;-72
2022/10/07 04:26:06;;;;;;;0.10;0.10;;;;;;;9.90;83.80;99974.31;5026382;28;20050;-72
2022/10/07 04:28:32;;;;;;;0.32;0.10;;;;;;;9.90;83.53;99978.97;5050475;28;20589;-71
2022/10/07 04:31:06;;;;;;;0.10;0.10;;;;;;;9.85;83.91;99979.78;5020796;28;20041;-72
2022/10/07 04:33:38;;;;;;;0.20;0.20;;;;;;;9.81;84.22;99986.88;5021853;28;20095;-72
2022/10/07 04:36:05;;;;;;;0.10;0.10;;;;;;;9.81;84.54;99988.75;5030473;28;20048;-71
2022/10/07 04:38:32;;;;;;;0.10;0.10;;;;;;;9.86;84.29;99989.59;5029261;28;20076;-71
2022/10/07 04:41:05;;;;;;;0.10;0.10;;;;;;;9.90;83.89;99984.44;5031483;28;20045;-71
2022/10/07 04:43:33;;;;;;;0.10;0.10;;;;;;;9.95;82.86;99989.13;5046833;28;20044;-71
2022/10/07 04:46:06;;;;;;;0.10;0.10;;;;;;;9.98;82.54;99992.13;5050748;28;20051;-72
2022/10/07 04:48:35;;;;;;;0.10;0.10;;;;;;;9.99;82.24;99992.94;5051883;28;20048;-72
2022/10/07 04:51:03;;;;;;;0.15;0.10;;;;;;;9.99;82.17;100001.16;5049322;28;20063;-71
2022/10/07 04:53:30;;;;;;;0.20;0.20;;;;;;;10.00;82.09;99998.16;5027295;28;20095;-71
2022/10/07 04:55:57;;;;;;;0.20;0.20;;;;;;;10.02;81.81;100004.19;5042299;28;20056;-71
2022/10/07 04:58:26;;;;;;;0.10;0.10;;;;;;;10.04;81.73;100002.00;5045530;28;20049;-71
2022/10/07 05:00:54;;;;;;;0.10;0.10;;;;;;;10.07;81.19;100006.91;5028120;28;20045;-71
2022/10/07 05:03:25;;;;;;;0.10;0.10;;;;;;;10.09;80.79;100012.13;5042245;28;20134;-71
2022/10/07 05:05:53;;;;;;;0.10;0.10;;;;;;;10.10;80.52;100018.41;5041408;28;20044;-71
2022/10/07 05:08:23;;;;;;;0.13;0.13;;;;;;;10.13;80.02;100015.13;5032769;28;20468;-71
2022/10/07 05:10:54;;;;;;;0.10;0.10;;;;;;;10.12;79.94;100013.50;5040436;28;20052;-71
2022/10/07 05:13:21;;;;;;;0.17;0.17;;;;;;;10.24;79.77;100029.69;5016609;28;20052;-71
2022/10/07 05:15:51;;;;;;;0.20;0.20;;;;;;;10.43;79.22;100024.56;5021942;28;20594;-71
2022/10/07 05:18:18;;;;;;;0.28;0.28;;;;;;;10.67;78.43;100026.84;5017985;28;20041;-72
2022/10/07 05:20:46;;;;;;;;;;;;;;;10.84;77.77;100032.88;5020669;28;20148;-71
2022/10/07 05:23:13;;;;;;;0.10;0.10;;;;;;;10.96;77.05;100026.34;5033407;28;20027;-71
2022/10/07 05:25:40;;;;;;;0.20;0.20;;;;;;;10.90;77.01;100028.25;5032014;28;20500;-71
2022/10/07 05:28:06;;;;;;;0.20;0.20;;;;;;;10.83;77.17;100027.69;5044752;28;20052;-71
2022/10/07 05:30:32;;;;;;;0.15;0.15;;;;;;;10.83;77.30;100038.63;5047959;28;20072;-71
2022/10/07 05:33:01;;;;;;;0.20;0.20;;;;;;;10.81;77.22;100035.34;4697669;28;10000230;-71
2022/10/07 05:35:27;;;;;;;0.43;0.20;;;;;;;10.82;77.79;100036.97;5063519;28;20303;-71
2022/10/07 05:37:54;;;;;;;0.20;0.20;;;;;;;10.95;77.79;100057.53;5040749;28;20053;-71
2022/10/07 05:40:21;;;;;;;0.20;0.20;;;;;;;10.99;76.43;100045.75;5025373;28;20033;-71
2022/10/07 05:42:48;;;;;;;0.35;0.20;;;;;;;11.03;76.01;100057.81;5027412;28;20037;-72
2022/10/07 05:45:15;;;;;;;0.20;0.20;;;;;;;11.10;75.50;100059.47;5028184;28;20095;-71
2022/10/07 05:47:41;;;;;;;0.20;0.20;;;;;;;11.12;74.12;100065.47;5029894;28;20060;-71
2022/10/07 05:50:10;;;;;;;0.10;0.10;;;;;;;11.09;74.66;100061.38;5035775;28;20076;-71
2022/10/07 05:52:37;;;;;;;0.20;0.20;;;;;;;11.11;74.61;100063.84;5043158;28;20053;-71
2022/10/07 05:55:04;;;;;;;0.10;0.10;;;;;;;10.99;74.18;100058.63;5017795;28;20048;-71
2022/10/07 05:57:32;;;;;;;0.20;0.20;;;;;;;10.78;75.20;100064.06;5030476;28;20144;-69
2022/10/07 05:59:58;;;;;;;0.20;0.20;;;;;;;10.78;75.93;100069.53;5024140;28;20048;-71
2022/10/07 06:02:25;;;;;;;0.20;0.20;;;;;;;10.91;75.94;100070.94;5040312;28;20049;-71
2022/10/07 06:04:52;;;;;;;0.20;0.20;;;;;;;10.94;75.21;100097.75;5025361;28;20052;-70
2022/10/07 06:07:22;;;;;;;0.30;0.30;;;;;;;10.93;75.21;100082.41;5041970;28;20075;-71
2022/10/07 06:15:22;;;;;;;0.30;0.30;;;;;;;10.82;76.04;100076.09;5029068;28;20416;-71
2022/10/07 06:17:48;;;;;;;0.20;0.20;;;;;;;10.86;76.10;100079.94;5017597;28;20045;-71
2022/10/07 06:20:17;;;;;;;0.20;0.20;;;;;;;11.04;75.57;100092.28;5002046;28;20072;-71
2022/10/07 06:22:46;;;;;;;0.20;0.20;;;;;;;11.08;74.91;100089.81;5011698;28;20060;-71
2022/10/07 06:25:14;;;;;;;0.30;0.30;;;;;;;11.15;74.31;100084.91;5024789;28;20167;-70
2022/10/07 06:27:40;;;;;;;0.20;0.20;;;;;;;11.20;73.96;100101.34;5026639;28;20116;-70
2022/10/07 06:30:08;;;;;;;0.17;0.17;;;;;;;11.24;73.48;100103.53;5025851;28;20480;-70
2022/10/07 06:32:34;;;;;;;0.20;0.20;;;;;;;11.19;73.74;100115.31;5024912;28;20041;-71
2022/10/07 06:35:00;;;;;;;0.20;0.20;;;;;;;11.28;73.83;100126.53;5033021;28;20049;-70
2022/10/07 06:37:29;;;;;;;0.22;0.22;;;;;;;11.43;73.42;100123.81;5012685;28;20121;-70
2022/10/07 06:39:57;;;;;;;0.20;0.20;;;;;;;11.55;72.60;100126.28;5029883;28;20155;-71
2022/10/07 06:42:23;;;;;;;;;;;;;;;11.45;72.78;100134.50;5032411;28;20041;-70
2022/10/07 06:45:18;;;;;;;0.30;0.30;;;;;;;11.47;72.96;100145.97;5013799;28;19928;-71
2022/10/07 06:47:46;;;;;;;0.20;0.20;;;;;;;11.47;72.74;100135.03;5027954;28;20524;-70
2022/10/07 06:50:13;;;;;;;0.30;0.30;;;;;;;11.34;72.37;100139.13;5036784;28;20349;-71
2022/10/07 06:52:39;;;;;;;0.20;0.20;;;;;;;11.38;72.21;100150.38;5034758;28;20048;-70
2022/10/07 06:55:08;;;;;;;0.30;0.30;;;;;;;11.37;72.48;100146.78;5033619;28;20927;-70
2022/10/07 06:57:35;;;;;;;0.20;0.20;;;;;;;11.44;71.86;100155.59;5015363;28;20049;-68
2022/10/07 07:00:03;;;;;;;0.20;0.20;;;;;;;11.44;71.99;100149.28;5039961;28;20045;-69
2022/10/07 07:02:32;;;;;;;0.20;0.20;;;;;;;11.41;71.53;100158.88;5040418;28;20143;-69
2022/10/07 07:05:03;;;;;;;0.20;0.20;;;;;;;11.55;70.66;100152.84;5014399;28;20061;-69
2022/10/07 07:07:29;;;;;;;0.30;0.30;;;;;;;11.86;69.86;100163.81;5014332;28;20063;-69
2022/10/07 07:09:56;;;;;;;0.30;0.30;;;;;;;12.07;68.92;100167.38;5031162;28;20059;-69
2022/10/07 07:12:24;;;;;;;0.30;0.30;;;;;;;12.17;68.13;100174.75;5044488;28;20051;-70
2022/10/07 07:14:50;;;;;;;0.30;0.30;;;;;;;12.45;66.99;100178.00;5036217;28;20069;-69
2022/10/07 07:17:20;;;;;;;0.30;0.30;;;;;;;12.38;66.89;100185.72;5008032;28;20072;-70
2022/10/07 07:19:47;;;;;;;0.20;0.20;;;;;;;12.10;67.09;100187.94;5025895;28;20111;-70
2022/10/07 07:22:13;;;;;;;0.10;0.10;;;;;;;11.82;66.92;100195.59;5029488;28;20140;-71
2022/10/07 07:24:41;;;;;;;0.20;0.20;;;;;;;11.59;67.69;100195.03;5030707;28;20365;-71
2022/10/07 07:27:07;;;;;;;0.10;0.10;;;;;;;11.44;68.67;100187.59;5035297;28;20045;-70
2022/10/07 07:29:36;;;;;;;0.20;0.20;;;;;;;11.47;69.04;100198.84;5040530;28;20048;-71
2022/10/07 07:32:03;;;;;;;0.20;0.20;;;;;;;11.49;69.36;100198.59;5036095;28;20583;-72
2022/10/07 07:34:35;;;;;;;0.20;0.20;;;;;;;11.40;68.88;100202.94;5017838;28;20067;-70
2022/10/07 07:37:01;;;;;;;0.20;0.20;;;;;;;11.31;69.03;100203.44;5026708;28;20052;-71
2022/10/07 07:39:33;;;;;;;0.20;0.20;;;;;;;11.26;69.28;100197.16;5036935;28;20041;-71
2022/10/07 07:42:07;;;;;;;0.20;0.20;;;;;;;11.17;69.87;100199.59;5042327;28;20083;-69
2022/10/07 07:44:39;;;;;;;0.20;0.20;;;;;;;11.19;69.69;100208.38;5035820;28;20582;-67
2022/10/07 07:47:08;;;;;;;0.17;0.17;;;;;;;11.23;69.55;100214.94;5027359;28;20428;-71
2022/10/07 07:49:35;;;;;;;0.20;0.20;;;;;;;11.21;69.05;100206.97;5035251;28;20100;-71
2022/10/07 07:52:02;;;;;;;0.20;0.20;;;;;;;11.21;69.46;100212.47;5025810;28;20075;-70
2022/10/07 07:54:36;;;;;;;0.20;0.20;;;;;;;11.26;69.39;100224.53;5026044;28;20508;-68
2022/10/07 07:57:03;;;;;;;0.25;0.20;;;;;;;11.33;69.50;100209.50;5016125;28;20049;-68
2022/10/07 07:59:31;;;;;;;0.20;0.20;;;;;;;11.33;69.16;100206.75;5026237;28;20075;-68
2022/10/07 08:01:59;;;;;;;;;;;;;;;11.42;68.92;100203.47;5028756;28;20098;-68
2022/10/07 08:04:26;;;;;;;0.30;0.30;;;;;;;11.55;67.95;100208.44;5026751;28;19954;-68
2022/10/07 08:06:54;;;;;;;0.30;0.30;;;;;;;11.63;67.00;100209.81;5039353;28;20045;-71
2022/10/07 08:09:23;;;;;;;0.30;0.30;;;;;;;11.56;67.66;100209.28;5039059;28;20045;-70
2022/10/07 08:11:49;;;;;;;0.20;0.20;;;;;;;11.68;67.73;100219.97;5032394;28;20037;-70
2022/10/07 08:14:17;;;;;;;0.20;0.20;;;;;;;11.78;66.85;100215.31;5037253;28;20531;-70
2022/10/07 08:16:46;;;;;;;0.38;0.30;;;;;;;11.86;66.36;100237.78;5030906;28;20128;-70
2022/10/07 08:19:14;;;;;;;0.22;0.22;;;;;;;11.81;66.61;100232.31;5037913;28;20053;-70
2022/10/07 08:21:41;;;;;;;0.22;0.22;;;;;;;12.23;65.14;100222.19;5021827;28;20048;-72
2022/10/07 08:24:12;;;;;;;0.45;0.40;;;;;;;12.83;63.64;100224.25;5012318;28;20547;-70
2022/10/07 08:26:39;;;;;;;0.30;0.30;;;;;;;13.73;61.19;100229.88;5019005;28;20041;-71
2022/10/07 08:29:08;;;;;;;0.55;0.40;;;;;;;13.96;59.69;100235.75;5016463;28;20045;-70
2022/10/07 08:31:34;;;;;;;0.40;0.40;;;;;;;14.35;58.28;100239.53;5041783;28;20132;-70
2022/10/07 08:34:02;;;;;;;0.30;0.30;;;;;;;15.03;56.92;100235.00;5032741;28;20041;-70
2022/10/07 08:36:32;;;;;;;0.30;0.30;;;;;;;14.97;56.51;100242.50;5031033;28;20531;-70
2022/10/07 08:38:58;;;;;;;0.40;0.40;;;;;;;15.54;55.09;100249.22;5030412;28;20455;-70
2022/10/07 08:41:40;;;;;;;0.40;0.40;;;;;;;15.17;54.88;100240.59;5003368;28;20302;-70
2022/10/07 08:44:16;;;;;;;0.30;0.30;;;;;;;14.70;55.17;100246.63;5039997;28;20340;-70
2022/10/07 08:46:51;;;;;;;0.50;0.50;;;;;;;14.07;57.03;100253.81;5042983;28;20145;-70
2022/10/07 08:49:22;;;;;;;0.30;0.30;;;;;;;14.32;55.90;100232.72;5039932;28;20464;-70
2022/10/07 08:51:57;;;;;;;0.30;0.30;;;;;;;14.09;57.13;100245.28;5041686;28;20490;-71
2022/10/07 08:54:27;;;;;;;0.30;0.30;;;;;;;13.80;57.70;100251.53;5001538;28;20063;-70
2022/10/07 08:56:57;;;;;;;0.30;0.30;;;;;;;13.23;58.95;100233.44;5043837;28;20519;-69
2022/10/07 08:59:29;;;;;;;0.52;0.38;;;;;;;12.98;59.60;100248.09;5045270;28;20073;-70
2022/10/07 09:02:12;;;;;;;0.30;0.30;;;;;;;12.93;58.60;100272.78;5041990;28;20544;-70
2022/10/07 09:04:50;;;;;;;0.30;0.30;;;;;;;13.11;59.25;100253.00;5039560;28;20072;-68
2022/10/07 09:07:28;;;;;;;0.40;0.40;;;;;;;13.28;59.17;100240.84;5034631;28;20056;-68
2022/10/07 09:09:59;;;;;;;0.30;0.30;;;;;;;13.57;58.51;100256.63;5038096;28;20524;-69
2022/10/07 09:12:33;;;;;;;0.30;0.30;;;;;;;13.90;56.94;100255.03;5041250;28;20583;-69
2022/10/07 09:15:02;;;;;;;0.52;0.52;;;;;;;14.16;56.87;100259.50;5045695;28;20049;-68
2022/10/07 09:17:35;;;;;;;0.30;0.30;;;;;;;15.60;53.50;100262.63;5045320;28;20050;-68
2022/10/07 09:20:05;;;;;;;0.30;0.30;;;;;;;15.82;51.45;100255.69;5048186;28;20416;-68
2022/10/07 09:22:36;;;;;;;0.90;0.90;;;;;;;15.43;52.78;100251.28;5033844;28;20463;-69
2022/10/07 09:25:18;;;;;;;0.40;0.40;;;;;;;15.48;52.77;100259.47;5048989;28;20068;-69
2022/10/07 09:27:44;;;;;;;0.73;0.73;;;;;;;15.80;52.27;100259.88;5027308;28;20663;-68
2022/10/07 09:30:13;;;;;;;0.40;0.40;;;;;;;15.94;50.54;100255.28;5037314;28;20128;-71
2022/10/07 09:32:42;;;;;;;0.50;0.50;;;;;;;16.06;51.14;100259.47;5024953;28;20064;-68
2022/10/07 09:35:12;;;;;;;1.00;1.00;;;;;;;16.15;50.71;100258.50;5042063;28;20053;-69
2022/10/07 09:37:54;;;;;;;0.40;0.40;;;;;;;16.53;48.95;100254.81;5034219;28;20045;-68
2022/10/07 09:40:29;;;;;;;0.70;0.70;;;;;;;15.94;50.22;100263.53;5039299;28;20523;-68
2022/10/07 09:42:57;;;;;;;0.30;0.30;;;;;;;15.06;52.34;100266.63;5041197;28;20049;-69
2022/10/07 09:45:25;;;;;;;;;;;;;;;14.25;54.22;100271.53;5037986;28;20060;-68
2022/10/07 09:47:52;;;;;;;0.30;0.30;;;;;;;13.68;55.86;100254.66;5042752;28;20023;-68
2022/10/07 09:50:35;;;;;;;;;;;;;;;13.39;57.24;100264.38;5043611;28;20408;-68
2022/10/07 09:53:15;;;;;;;0.30;0.30;;;;;;;13.27;57.78;100250.19;5026248;28;20418;-70
2022/10/07 09:55:42;;;;;;;0.30;0.30;;;;;;;13.17;57.07;100240.03;5042099;28;20132;-70
2022/10/07 09:58:16;;;;;;;;;;;;;;;13.09;57.83;100262.59;5044223;28;20136;-70
2022/10/07 10:00:44;;;;;;;0.45;0.30;;;;;;;13.05;58.33;100267.81;5042758;28;20009;-71
2022/10/07 10:03:11;;;;;;;0.30;0.30;;;;;;;13.57;56.43;100256.63;5041414;28;20527;-70
2022/10/07 10:05:39;;;;;;;0.40;0.40;;;;;;;13.64;56.08;100270.88;5046053;28;20040;-71
2022/10/07 10:08:22;;;;;;;0.50;0.50;;;;;;;13.94;55.31;100257.19;5047187;28;20206;-69
2022/10/07 10:10:50;;;;;;;0.40;0.40;;;;;;;14.70;53.83;100263.13;5042711;28;20052;-68
2022/10/07 10:13:25;;;;;;;0.30;0.30;;;;;;;14.53;53.31;100257.25;5041740;28;20084;-69
2022/10/07 10:15:53;;;;;;;0.30;0.30;;;;;;;14.32;54.23;100265.72;5005102;28;20095;-69
2022/10/07 10:18:41;;;;;;;0.40;0.40;;;;;;;14.26;54.84;100256.69;5040416;28;20044;-68
2022/10/07 10:21:18;;;;;;;0.40;0.40;;;;;;;14.59;53.46;100256.91;5035446;28;20477;-70
2022/10/07 10:23:47;;;;;;;0.30;0.30;;;;;;;14.34;53.47;100255.25;5041064;28;20052;-68
2022/10/07 10:26:54;;;;;;;0.28;0.28;;;;;;;13.94;54.00;100270.94;5043672;28;20037;-68
2022/10/07 10:29:25;;;;;;;;;;;;;;;13.71;55.86;100276.06;5044746;28;20149;-68
2022/10/07 10:32:26;;;;;;;0.40;0.40;;;;;;;13.74;55.86;100265.34;5045420;28;19925;-70
2022/10/07 10:34:59;;;;;;;0.40;0.40;;;;;;;14.00;55.83;100265.13;5004787;28;20539;-70
2022/10/07 10:37:36;;;;;;;0.40;0.40;;;;;;;14.11;54.14;100265.88;5037090;28;20049;-70
2022/10/07 10:40:19;;;;;;;0.40;0.40;;;;;;;14.29;53.56;100249.78;5038070;28;20046;-70
2022/10/07 10:42:56;;;;;;;0.40;0.40;;;;;;;14.47;53.33;100256.47;5037534;28;20045;-70
2022/10/07 10:45:36;;;;;;;0.40;0.40;;;;;;;14.97;52.20;100260.94;5032497;28;20056;-71
2022/10/07 10:48:21;;;;;;;0.40;0.40;;;;;;;15.24;51.50;100268.63;5041931;28;20321;-70
2022/10/07 10:50:55;;;;;;;0.40;0.40;;;;;;;15.18;50.84;100269.78;5041565;28;20582;-70
2022/10/07 10:53:35;;;;;;;0.50;0.50;;;;;;;14.91;51.41;100259.38;5040983;28;20535;-70
2022/10/07 10:56:14;;;;;;;0.50;0.50;;;;;;;15.24;50.75;100248.50;5043107;28;20065;-69
2022/10/07 10:58:53;;;;;;;0.40;0.40;;;;;;;14.83;51.91;100260.84;5028543;28;20044;-70
2022/10/07 11:01:28;;;;;;;0.40;0.40;;;;;;;14.64;52.76;100253.31;5045146;28;20827;-71
2022/10/07 11:04:24;;;;;;;0.40;0.40;;;;;;;14.85;52.20;100255.84;5037340;28;20086;-70
2022/10/07 11:06:54;;;;;;;0.40;0.40;;;;;;;15.30;50.95;100252.84;5041395;28;20436;-70
2022/10/07 11:09:30;;;;;;;0.63;0.50;;;;;;;15.40;50.93;100254.66;5040772;28;20094;-70
2022/10/07 11:12:03;;;;;;;0.98;0.50;;;;;;;15.41;51.30;100267.31;5046846;28;20143;-70
2022/10/07 11:14:31;;;;;;;0.40;0.40;;;;;;;16.06;49.83;100262.25;5044883;28;20059;-70
2022/10/07 11:17:02;;;;;;;0.30;0.30;;;;;;;16.21;48.34;100278.53;5045711;28;20051;-70
2022/10/07 11:19:33;;;;;;;0.30;0.30;;;;;;;15.33;50.50;100266.03;5038786;28;20254;-71
2022/10/07 11:22:00;;;;;;;0.40;0.40;;;;;;;14.73;52.43;100267.28;5041958;28;20163;-70
2022/10/07 11:24:31;;;;;;;0.40;0.40;;;;;;;14.67;52.56;100276.66;5043575;28;20053;-70
2022/10/07 11:27:07;;;;;;;0.43;0.40;;;;;;;14.51;52.26;100276.78;5044070;28;20060;-70
2022/10/07 11:29:40;;;;;;;0.30;0.30;;;;;;;14.27;52.80;100287.75;5040328;28;20145;-71
2022/10/07 11:32:14;;;;;;;0.30;0.30;;;;;;;13.98;53.90;100272.03;5036436;28;20147;-71
2022/10/07 11:34:46;;;;;;;0.30;0.30;;;;;;;13.86;54.82;100277.88;5045797;28;20625;-69
2022/10/07 11:37:18;;;;;;;0.30;0.30;;;;;;;14.13;54.40;100279.34;5041809;28;20126;-68
2022/10/07 11:39:45;;;;;;;0.30;0.30;;;;;;;14.33;53.34;100281.09;5043123;28;20051;-67
2022/10/07 11:42:18;;;;;;;0.50;0.50;;;;;;;14.18;53.66;100282.88;5043865;28;20124;-68
2022/10/07 11:44:53;;;;;;;0.30;0.30;;;;;;;14.31;53.81;100283.31;5032832;28;20092;-70
2022/10/07 11:47:24;;;;;;;0.30;0.30;;;;;;;14.26;54.20;100288.84;5043148;28;20064;-70
2022/10/07 11:49:56;;;;;;;0.30;0.30;;;;;;;14.16;53.95;100298.00;5044255;28;20503;-70
2022/10/07 11:52:25;;;;;;;0.30;0.30;;;;;;;13.86;54.50;100300.69;5037605;28;20099;-70
2022/10/07 11:54:58;;;;;;;0.30;0.30;;;;;;;13.56;55.28;100305.25;5029801;28;20072;-70